»·PEaware :: XB-AVE KBFL-KMHV

XB-AVE :: KBFL-KMHV

FLIGHT INFORMATION

Flight Status: Arrived
Operator: Privately registered:
Mexico
More flights under this callsign
Pilot: José E. (16166)
Aircraft: CESSNA 172 SKYHAWK
(C172)
More flights by this aircraft type
Origin: KBFL Meadows
United States
Destination: KMHV Mojave
United States
More flights between these airports :: More routes between these airports
Route: +
File this flight plan on PilotEdge
Remarks:
Altitude:
(Current/Filed)
7,500ft
Speed:
(Current/Filed)
0kts
Departed: 28-Sep-17 02:39 PM
Arrived: 28-Sep-17 03:23 PM
Distance/Time
Traveled:
50nm/0:44
Distance/Time
To Go:
Arrived

Flight Plot

Page will automatically refresh every two minutes.


Map Options




Map Legend


Flown Route
Filed Route
Departure Airport
Arrival Airport
Navaid (VOR, NDB)
Fix

Horizontal Profiles

Position Reports

Time Latitude Longitude Heading Altitude Ground
Speed
28-Sep-17 14:32 35.435704 -119.052053 180 503ft 0kts
28-Sep-17 14:33 35.435469 -119.052355 268 501ft 5kts
28-Sep-17 14:34 35.434584 -119.054445 194 494ft 7kts
28-Sep-17 14:35 35.433185 -119.053167 134 492ft 4kts
28-Sep-17 14:36 35.431470 -119.051098 136 492ft 12kts
28-Sep-17 14:37 35.429367 -119.048519 139 489ft 8kts
28-Sep-17 14:38 35.428186 -119.047124 135 487ft 5kts
28-Sep-17 14:39 35.426731 -119.045368 136 482ft 9kts
28-Sep-17 14:40 35.425712 -119.044746 217 479ft 0kts
28-Sep-17 14:41 35.425712 -119.044746 217 479ft 0kts
28-Sep-17 14:42 35.425694 -119.044763 216 478ft 1kts
28-Sep-17 14:43 35.430256 -119.051600 315 552ft 84kts
28-Sep-17 14:44 35.451260 -119.067122 14 1476ft 91kts
28-Sep-17 14:45 35.458672 -119.043598 133 1778ft 92kts
28-Sep-17 14:46 35.445527 -119.018960 116 2309ft 85kts
28-Sep-17 14:47 35.438118 -118.990897 113 2746ft 87kts
28-Sep-17 14:48 35.429186 -118.963587 118 3208ft 87kts
28-Sep-17 14:49 35.418628 -118.937140 118 3661ft 85kts
28-Sep-17 14:50 35.408143 -118.910364 116 4094ft 87kts
28-Sep-17 14:51 35.396723 -118.884167 121 4504ft 88kts
28-Sep-17 14:52 35.384624 -118.858504 127 4967ft 90kts
28-Sep-17 14:53 35.371742 -118.833369 120 5470ft 89kts
28-Sep-17 14:54 35.359972 -118.806710 122 5936ft 88kts
28-Sep-17 14:55 35.346849 -118.780894 116 6374ft 90kts
28-Sep-17 14:56 35.334262 -118.754574 120 6809ft 89kts
28-Sep-17 14:57 35.321841 -118.727942 118 7242ft 91kts
28-Sep-17 14:58 35.307580 -118.701483 124 7528ft 94kts
28-Sep-17 14:59 35.292141 -118.675589 124 7574ft 93kts
28-Sep-17 15:00 35.277122 -118.649165 113 7616ft 93kts
28-Sep-17 15:01 35.261448 -118.623992 129 7664ft 93kts
28-Sep-17 15:02 35.245107 -118.598574 125 7670ft 95kts
28-Sep-17 15:03 35.229404 -118.572667 126 7501ft 96kts
28-Sep-17 15:04 35.211454 -118.548451 130 7443ft 96kts
28-Sep-17 15:05 35.193481 -118.524629 132 7472ft 92kts
28-Sep-17 15:06 35.173346 -118.503424 139 7493ft 97kts
28-Sep-17 15:07 35.153776 -118.481496 121 7476ft 93kts
28-Sep-17 15:08 35.141719 -118.453796 112 7496ft 91kts
28-Sep-17 15:09 35.131815 -118.425609 110 7336ft 88kts
28-Sep-17 15:10 35.122266 -118.398274 115 7020ft 88kts
28-Sep-17 15:11 35.111180 -118.371652 115 6682ft 87kts
28-Sep-17 15:12 35.100658 -118.345892 113 6404ft 83kts
28-Sep-17 15:13 35.091688 -118.319862 113 6058ft 84kts
28-Sep-17 15:14 35.075455 -118.299266 163 5556ft 85kts
28-Sep-17 15:15 35.061172 -118.282478 100 5058ft 79kts
28-Sep-17 15:16 35.059882 -118.253759 91 4486ft 86kts
28-Sep-17 15:17 35.059652 -118.224687 90 3823ft 83kts
28-Sep-17 15:18 35.059401 -118.195425 98 3388ft 86kts
28-Sep-17 15:19 35.059243 -118.168245 94 2870ft 77kts
28-Sep-17 15:20 35.057519 -118.142794 95 3342ft 78kts
28-Sep-17 15:21 35.073971 -118.128648 359 3846ft 105kts
28-Sep-17 15:22 35.084652 -118.153391 256 3819ft 98kts
28-Sep-17 15:23 35.080831 -118.186048 265 3759ft 97kts
28-Sep-17 15:24 35.070756 -118.206507 172 3595ft 81kts
28-Sep-17 15:25 35.059319 -118.187344 91 3235ft 84kts
28-Sep-17 15:26 35.059204 -118.159471 96 2769ft 66kts
28-Sep-17 15:27 35.058961 -118.150458 132 2749ft 11kts
28-Sep-17 15:28 35.058450 -118.149782 138 2746ft 4kts
28-Sep-17 15:29 35.057575 -118.151155 270 2749ft 3kts
28-Sep-17 15:30 35.056675 -118.152013 204 2750ft 3kts
28-Sep-17 15:31 35.056586 -118.152290 259 2750ft 0kts
28-Sep-17 15:32 35.056586 -118.152290 259 2750ft 0kts
28-Sep-17 15:33 35.056586 -118.152290 259 2750ft 0kts
28-Sep-17 15:34 35.056586 -118.152290 259 2750ft 0kts
28-Sep-17 15:35 35.056586 -118.152290 259 2750ft 0kts

Navigation Log

Ident Type
1. KBFL Airport
2. KMHV Airport